sensor_id;sensor_type;location;lat;lon;timestamp;P1;durP1;ratioP1;P2;durP2;ratioP2
21731;SDS011;11028;51.156;17.130;2024-02-23T00:04:49;6.13;;;4.03;;
21731;SDS011;11028;51.156;17.130;2024-02-23T00:12:07;4.57;;;3.15;;
21731;SDS011;11028;51.156;17.130;2024-02-23T00:19:27;4.97;;;3.15;;
21731;SDS011;11028;51.156;17.130;2024-02-23T00:26:49;4.18;;;2.70;;
21731;SDS011;11028;51.156;17.130;2024-02-23T00:34:08;3.10;;;2.40;;
21731;SDS011;11028;51.156;17.130;2024-02-23T00:41:29;2.83;;;1.80;;
21731;SDS011;11028;51.156;17.130;2024-02-23T00:48:48;6.28;;;2.28;;
21731;SDS011;11028;51.156;17.130;2024-02-23T00:56:07;3.03;;;1.92;;
21731;SDS011;11028;51.156;17.130;2024-02-23T01:03:26;6.00;;;2.30;;
21731;SDS011;11028;51.156;17.130;2024-02-23T01:10:48;1.75;;;1.38;;
21731;SDS011;11028;51.156;17.130;2024-02-23T01:18:07;3.03;;;1.90;;
21731;SDS011;11028;51.156;17.130;2024-02-23T01:25:26;2.30;;;1.75;;
21731;SDS011;11028;51.156;17.130;2024-02-23T01:32:49;1.92;;;1.60;;
21731;SDS011;11028;51.156;17.130;2024-02-23T01:40:08;3.90;;;1.90;;
21731;SDS011;11028;51.156;17.130;2024-02-23T01:47:27;1.65;;;1.40;;
21731;SDS011;11028;51.156;17.130;2024-02-23T01:54:48;2.38;;;1.58;;
21731;SDS011;11028;51.156;17.130;2024-02-23T02:02:07;2.42;;;1.70;;
21731;SDS011;11028;51.156;17.130;2024-02-23T02:09:28;2.47;;;1.65;;
21731;SDS011;11028;51.156;17.130;2024-02-23T02:16:48;3.42;;;2.17;;
21731;SDS011;11028;51.156;17.130;2024-02-23T02:24:08;2.65;;;1.85;;
21731;SDS011;11028;51.156;17.130;2024-02-23T02:31:29;4.95;;;2.67;;
21731;SDS011;11028;51.156;17.130;2024-02-23T02:38:57;2.88;;;2.40;;
21731;SDS011;11028;51.156;17.130;2024-02-23T02:46:15;3.17;;;2.58;;
21731;SDS011;11028;51.156;17.130;2024-02-23T02:53:34;4.78;;;3.00;;
21731;SDS011;11028;51.156;17.130;2024-02-23T03:00:54;5.05;;;3.40;;
21731;SDS011;11028;51.156;17.130;2024-02-23T03:08:12;6.28;;;3.10;;
21731;SDS011;11028;51.156;17.130;2024-02-23T03:15:33;4.10;;;3.25;;
21731;SDS011;11028;51.156;17.130;2024-02-23T03:22:53;5.18;;;2.70;;
21731;SDS011;11028;51.156;17.130;2024-02-23T03:30:12;2.95;;;2.63;;
21731;SDS011;11028;51.156;17.130;2024-02-23T03:37:30;6.18;;;3.08;;
21731;SDS011;11028;51.156;17.130;2024-02-23T03:44:53;4.07;;;2.92;;
21731;SDS011;11028;51.156;17.130;2024-02-23T03:52:12;3.38;;;2.78;;
21731;SDS011;11028;51.156;17.130;2024-02-23T03:59:31;4.30;;;2.83;;
21731;SDS011;11028;51.156;17.130;2024-02-23T04:06:52;4.53;;;3.17;;
21731;SDS011;11028;51.156;17.130;2024-02-23T04:14:11;4.05;;;2.90;;
21731;SDS011;11028;51.156;17.130;2024-02-23T04:21:29;7.20;;;3.20;;
21731;SDS011;11028;51.156;17.130;2024-02-23T04:28:49;3.10;;;2.80;;
21731;SDS011;11028;51.156;17.130;2024-02-23T04:36:10;3.53;;;2.33;;
21731;SDS011;11028;51.156;17.130;2024-02-23T04:43:29;3.95;;;3.05;;
21731;SDS011;11028;51.156;17.130;2024-02-23T04:50:49;4.20;;;2.78;;
21731;SDS011;11028;51.156;17.130;2024-02-23T04:58:08;4.93;;;2.78;;
21731;SDS011;11028;51.156;17.130;2024-02-23T05:05:28;3.50;;;2.92;;
21731;SDS011;11028;51.156;17.130;2024-02-23T05:12:51;4.05;;;2.97;;
21731;SDS011;11028;51.156;17.130;2024-02-23T05:20:10;2.90;;;2.42;;
21731;SDS011;11028;51.156;17.130;2024-02-23T05:27:29;3.75;;;2.90;;
21731;SDS011;11028;51.156;17.130;2024-02-23T05:34:49;5.28;;;3.28;;
21731;SDS011;11028;51.156;17.130;2024-02-23T05:42:09;5.65;;;3.03;;
21731;SDS011;11028;51.156;17.130;2024-02-23T05:49:28;4.63;;;3.30;;
21731;SDS011;11028;51.156;17.130;2024-02-23T05:56:49;3.55;;;2.90;;
21731;SDS011;11028;51.156;17.130;2024-02-23T06:04:08;3.97;;;3.08;;
21731;SDS011;11028;51.156;17.130;2024-02-23T06:11:27;4.82;;;3.63;;
21731;SDS011;11028;51.156;17.130;2024-02-23T06:18:47;3.80;;;3.05;;
21731;SDS011;11028;51.156;17.130;2024-02-23T06:26:08;3.95;;;3.05;;
21731;SDS011;11028;51.156;17.130;2024-02-23T06:33:29;7.68;;;3.70;;
21731;SDS011;11028;51.156;17.130;2024-02-23T06:40:50;5.93;;;3.47;;
21731;SDS011;11028;51.156;17.130;2024-02-23T06:48:11;6.20;;;2.77;;
21731;SDS011;11028;51.156;17.130;2024-02-23T06:55:30;3.90;;;2.58;;
21731;SDS011;11028;51.156;17.130;2024-02-23T07:02:52;2.72;;;2.25;;
21731;SDS011;11028;51.156;17.130;2024-02-23T07:10:12;5.45;;;2.38;;
21731;SDS011;11028;51.156;17.130;2024-02-23T07:17:31;2.65;;;1.92;;
21731;SDS011;11028;51.156;17.130;2024-02-23T07:24:51;4.00;;;1.92;;
21731;SDS011;11028;51.156;17.130;2024-02-23T07:32:09;2.47;;;2.00;;
21731;SDS011;11028;51.156;17.130;2024-02-23T07:39:28;3.65;;;1.75;;
21731;SDS011;11028;51.156;17.130;2024-02-23T07:46:48;5.38;;;1.98;;
21731;SDS011;11028;51.156;17.130;2024-02-23T07:54:09;3.38;;;1.88;;
21731;SDS011;11028;51.156;17.130;2024-02-23T08:01:27;3.63;;;1.92;;
21731;SDS011;11028;51.156;17.130;2024-02-23T08:08:47;3.95;;;2.20;;
21731;SDS011;11028;51.156;17.130;2024-02-23T08:16:05;5.18;;;2.00;;
21731;SDS011;11028;51.156;17.130;2024-02-23T08:23:24;4.97;;;2.42;;
21731;SDS011;11028;51.156;17.130;2024-02-23T08:30:44;6.82;;;3.38;;
21731;SDS011;11028;51.156;17.130;2024-02-23T08:38:03;4.80;;;1.95;;
21731;SDS011;11028;51.156;17.130;2024-02-23T08:45:21;4.78;;;2.42;;
21731;SDS011;11028;51.156;17.130;2024-02-23T08:52:41;5.30;;;1.52;;
21731;SDS011;11028;51.156;17.130;2024-02-23T09:00:00;5.15;;;1.70;;
21731;SDS011;11028;51.156;17.130;2024-02-23T09:07:21;6.40;;;1.92;;
21731;SDS011;11028;51.156;17.130;2024-02-23T09:14:42;4.30;;;1.17;;
21731;SDS011;11028;51.156;17.130;2024-02-23T09:22:02;2.00;;;0.65;;
21731;SDS011;11028;51.156;17.130;2024-02-23T09:29:21;1.80;;;1.10;;
21731;SDS011;11028;51.156;17.130;2024-02-23T09:36:41;0.90;;;0.77;;
21731;SDS011;11028;51.156;17.130;2024-02-23T09:44:03;1.10;;;0.70;;
21731;SDS011;11028;51.156;17.130;2024-02-23T09:51:24;2.40;;;0.90;;
21731;SDS011;11028;51.156;17.130;2024-02-23T09:58:45;2.50;;;1.25;;
21731;SDS011;11028;51.156;17.130;2024-02-23T10:06:06;3.30;;;1.95;;
21731;SDS011;11028;51.156;17.130;2024-02-23T10:13:24;1.13;;;0.70;;
21731;SDS011;11028;51.156;17.130;2024-02-23T10:20:44;6.82;;;2.78;;
21731;SDS011;11028;51.156;17.130;2024-02-23T10:28:04;1.83;;;1.23;;
21731;SDS011;11028;51.156;17.130;2024-02-23T10:35:23;1.92;;;1.10;;
21731;SDS011;11028;51.156;17.130;2024-02-23T10:42:44;2.90;;;1.42;;
21731;SDS011;11028;51.156;17.130;2024-02-23T10:50:07;2.67;;;1.63;;
21731;SDS011;11028;51.156;17.130;2024-02-23T10:57:26;2.72;;;1.40;;
21731;SDS011;11028;51.156;17.130;2024-02-23T11:04:47;6.57;;;1.60;;
21731;SDS011;11028;51.156;17.130;2024-02-23T11:12:08;8.75;;;2.47;;
21731;SDS011;11028;51.156;17.130;2024-02-23T11:19:33;3.92;;;1.55;;
21731;SDS011;11028;51.156;17.130;2024-02-23T11:26:57;2.35;;;1.08;;
21731;SDS011;11028;51.156;17.130;2024-02-23T11:34:21;3.85;;;1.55;;
21731;SDS011;11028;51.156;17.130;2024-02-23T11:41:41;2.20;;;0.90;;
21731;SDS011;11028;51.156;17.130;2024-02-23T11:49:01;3.83;;;1.05;;
21731;SDS011;11028;51.156;17.130;2024-02-23T11:56:20;1.20;;;0.82;;
21731;SDS011;11028;51.156;17.130;2024-02-23T12:03:38;3.75;;;2.22;;
21731;SDS011;11028;51.156;17.130;2024-02-23T12:10:59;2.00;;;1.08;;
21731;SDS011;11028;51.156;17.130;2024-02-23T12:18:18;3.85;;;1.27;;
21731;SDS011;11028;51.156;17.130;2024-02-23T12:25:40;2.72;;;0.98;;
21731;SDS011;11028;51.156;17.130;2024-02-23T12:33:07;2.97;;;1.50;;
21731;SDS011;11028;51.156;17.130;2024-02-23T12:40:27;2.13;;;1.60;;
21731;SDS011;11028;51.156;17.130;2024-02-23T12:47:46;2.83;;;1.30;;
21731;SDS011;11028;51.156;17.130;2024-02-23T12:55:06;4.47;;;1.63;;
21731;SDS011;11028;51.156;17.130;2024-02-23T13:02:25;3.42;;;1.20;;
21731;SDS011;11028;51.156;17.130;2024-02-23T13:09:44;4.35;;;1.38;;
21731;SDS011;11028;51.156;17.130;2024-02-23T13:17:05;2.60;;;1.30;;
21731;SDS011;11028;51.156;17.130;2024-02-23T13:24:23;4.13;;;1.50;;
21731;SDS011;11028;51.156;17.130;2024-02-23T13:31:42;4.45;;;1.67;;
21731;SDS011;11028;51.156;17.130;2024-02-23T13:39:04;3.05;;;1.65;;
21731;SDS011;11028;51.156;17.130;2024-02-23T13:46:23;1.70;;;1.33;;
21731;SDS011;11028;51.156;17.130;2024-02-23T13:53:43;2.65;;;1.58;;
21731;SDS011;11028;51.156;17.130;2024-02-23T14:01:03;3.90;;;1.73;;
21731;SDS011;11028;51.156;17.130;2024-02-23T14:08:22;1.38;;;1.17;;
21731;SDS011;11028;51.156;17.130;2024-02-23T14:15:41;1.38;;;1.25;;
21731;SDS011;11028;51.156;17.130;2024-02-23T14:23:01;2.42;;;1.30;;
21731;SDS011;11028;51.156;17.130;2024-02-23T14:30:20;1.38;;;1.08;;
21731;SDS011;11028;51.156;17.130;2024-02-23T14:37:38;2.20;;;1.80;;
21731;SDS011;11028;51.156;17.130;2024-02-23T14:44:58;5.38;;;1.70;;
21731;SDS011;11028;51.156;17.130;2024-02-23T14:52:17;2.40;;;1.42;;
21731;SDS011;11028;51.156;17.130;2024-02-23T14:59:36;4.32;;;1.50;;
21731;SDS011;11028;51.156;17.130;2024-02-23T15:07:04;2.20;;;1.40;;
21731;SDS011;11028;51.156;17.130;2024-02-23T15:14:23;5.95;;;2.13;;
21731;SDS011;11028;51.156;17.130;2024-02-23T15:21:42;3.40;;;1.92;;
21731;SDS011;11028;51.156;17.130;2024-02-23T15:29:04;2.30;;;1.52;;
21731;SDS011;11028;51.156;17.130;2024-02-23T15:36:23;3.80;;;1.80;;
21731;SDS011;11028;51.156;17.130;2024-02-23T15:43:41;3.28;;;1.70;;
21731;SDS011;11028;51.156;17.130;2024-02-23T15:51:02;6.65;;;2.70;;
21731;SDS011;11028;51.156;17.130;2024-02-23T15:58:40;2.60;;;1.88;;
21731;SDS011;11028;51.156;17.130;2024-02-23T16:06:03;2.95;;;1.83;;
21731;SDS011;11028;51.156;17.130;2024-02-23T16:13:22;3.90;;;1.83;;
21731;SDS011;11028;51.156;17.130;2024-02-23T16:20:43;3.15;;;1.70;;
21731;SDS011;11028;51.156;17.130;2024-02-23T16:28:06;3.90;;;1.52;;
21731;SDS011;11028;51.156;17.130;2024-02-23T16:35:26;2.92;;;1.63;;
21731;SDS011;11028;51.156;17.130;2024-02-23T16:42:45;2.03;;;1.52;;
21731;SDS011;11028;51.156;17.130;2024-02-23T16:50:07;6.13;;;2.80;;
21731;SDS011;11028;51.156;17.130;2024-02-23T16:57:28;5.47;;;3.22;;
21731;SDS011;11028;51.156;17.130;2024-02-23T17:04:46;8.38;;;3.65;;
21731;SDS011;11028;51.156;17.130;2024-02-23T17:12:07;5.95;;;3.03;;
21731;SDS011;11028;51.156;17.130;2024-02-23T17:19:26;5.57;;;3.30;;
21731;SDS011;11028;51.156;17.130;2024-02-23T17:26:45;7.22;;;3.60;;
21731;SDS011;11028;51.156;17.130;2024-02-23T17:34:05;9.38;;;3.80;;
21731;SDS011;11028;51.156;17.130;2024-02-23T17:41:24;7.10;;;4.05;;
21731;SDS011;11028;51.156;17.130;2024-02-23T17:48:43;7.20;;;4.05;;
21731;SDS011;11028;51.156;17.130;2024-02-23T17:56:03;8.00;;;4.25;;
21731;SDS011;11028;51.156;17.130;2024-02-23T18:03:22;12.73;;;4.25;;
21731;SDS011;11028;51.156;17.130;2024-02-23T18:10:41;12.70;;;6.05;;
21731;SDS011;11028;51.156;17.130;2024-02-23T18:18:01;14.32;;;6.72;;
21731;SDS011;11028;51.156;17.130;2024-02-23T18:25:20;11.10;;;5.20;;
21731;SDS011;11028;51.156;17.130;2024-02-23T18:32:39;6.68;;;3.72;;
21731;SDS011;11028;51.156;17.130;2024-02-23T18:40:01;4.65;;;3.05;;
21731;SDS011;11028;51.156;17.130;2024-02-23T18:47:21;5.75;;;2.33;;
21731;SDS011;11028;51.156;17.130;2024-02-23T18:54:39;8.02;;;4.15;;
21731;SDS011;11028;51.156;17.130;2024-02-23T19:01:59;8.40;;;3.58;;
21731;SDS011;11028;51.156;17.130;2024-02-23T19:09:18;6.68;;;3.60;;
21731;SDS011;11028;51.156;17.130;2024-02-23T19:16:38;7.20;;;4.20;;
21731;SDS011;11028;51.156;17.130;2024-02-23T19:24:01;14.90;;;6.95;;
21731;SDS011;11028;51.156;17.130;2024-02-23T19:31:20;14.98;;;8.93;;
21731;SDS011;11028;51.156;17.130;2024-02-23T19:38:42;11.85;;;7.97;;
21731;SDS011;11028;51.156;17.130;2024-02-23T19:46:02;15.65;;;8.55;;
21731;SDS011;11028;51.156;17.130;2024-02-23T19:53:33;17.25;;;8.07;;
21731;SDS011;11028;51.156;17.130;2024-02-23T20:00:52;12.38;;;8.35;;
21731;SDS011;11028;51.156;17.130;2024-02-23T20:08:12;13.38;;;8.23;;
21731;SDS011;11028;51.156;17.130;2024-02-23T20:15:31;16.00;;;8.65;;
21731;SDS011;11028;51.156;17.130;2024-02-23T20:22:50;13.13;;;8.40;;
21731;SDS011;11028;51.156;17.130;2024-02-23T20:30:13;14.65;;;8.43;;
21731;SDS011;11028;51.156;17.130;2024-02-23T20:37:32;21.95;;;11.23;;
21731;SDS011;11028;51.156;17.130;2024-02-23T20:44:50;24.88;;;11.10;;
21731;SDS011;11028;51.156;17.130;2024-02-23T20:52:13;34.30;;;16.90;;
21731;SDS011;11028;51.156;17.130;2024-02-23T20:59:33;32.45;;;15.88;;
21731;SDS011;11028;51.156;17.130;2024-02-23T21:06:56;30.00;;;15.88;;
21731;SDS011;11028;51.156;17.130;2024-02-23T21:14:16;27.20;;;15.48;;
21731;SDS011;11028;51.156;17.130;2024-02-23T21:21:35;32.92;;;16.38;;
21731;SDS011;11028;51.156;17.130;2024-02-23T21:28:55;34.08;;;15.05;;
21731;SDS011;11028;51.156;17.130;2024-02-23T21:36:15;32.28;;;16.10;;
21731;SDS011;11028;51.156;17.130;2024-02-23T21:43:33;24.90;;;14.15;;
21731;SDS011;11028;51.156;17.130;2024-02-23T21:50:54;16.92;;;9.23;;
21731;SDS011;11028;51.156;17.130;2024-02-23T21:58:14;18.20;;;8.50;;
21731;SDS011;11028;51.156;17.130;2024-02-23T22:05:33;15.20;;;9.13;;
21731;SDS011;11028;51.156;17.130;2024-02-23T22:12:52;18.55;;;10.68;;
21731;SDS011;11028;51.156;17.130;2024-02-23T22:20:12;16.05;;;9.40;;
21731;SDS011;11028;51.156;17.130;2024-02-23T22:27:31;23.95;;;13.10;;
21731;SDS011;11028;51.156;17.130;2024-02-23T22:34:51;13.88;;;9.30;;
21731;SDS011;11028;51.156;17.130;2024-02-23T22:42:11;19.38;;;9.23;;
21731;SDS011;11028;51.156;17.130;2024-02-23T22:49:30;17.05;;;9.40;;
21731;SDS011;11028;51.156;17.130;2024-02-23T22:56:49;17.92;;;10.82;;
21731;SDS011;11028;51.156;17.130;2024-02-23T23:04:11;37.78;;;18.45;;
21731;SDS011;11028;51.156;17.130;2024-02-23T23:11:30;18.45;;;10.30;;
21731;SDS011;11028;51.156;17.130;2024-02-23T23:18:49;14.73;;;8.88;;
21731;SDS011;11028;51.156;17.130;2024-02-23T23:26:09;16.58;;;8.73;;
21731;SDS011;11028;51.156;17.130;2024-02-23T23:33:28;20.48;;;10.55;;
21731;SDS011;11028;51.156;17.130;2024-02-23T23:40:46;23.73;;;11.55;;
21731;SDS011;11028;51.156;17.130;2024-02-23T23:48:07;15.63;;;8.95;;
21731;SDS011;11028;51.156;17.130;2024-02-23T23:55:27;16.80;;;8.30;;
